INFORMAÇÕES METEOROLÓGICAS
METAR FOR KDEN
ADDS - METARS form results

(1207 UTC 24 April 2018)
Data provider http://aviationweather.gov/adds/metars/
 
METAR text: KDEN 241153Z 01010KT 3/4SM R35L/P6000FT -SN BR OVC005 00/M01 A3036 RMK AO2 SLP250 P0003 60007 70007 T00001011 10044 20000 50009
Conditions at: KDEN (DENVER (DIA) , CO, US) observed 1153 UTC 24 April 2018
Temperature: 0.0°C (32°F)
Dewpoint: -1.1°C (30°F) [RH = 92%]
Pressure (altimeter): 30.36 inches Hg (1028.2 mb)
[Sea-level pressure: 1025.0 mb]
Winds: from the N (10 degrees) at 12 MPH (10 knots; 5.2 m/s)
Visibility: 0.75 miles (1.21 km)
Ceiling: 500 feet AGL
Clouds: overcast cloud deck at 500 feet AGL
Weather: -SN BR  (light snow, mist)

METAR text: KDEN 241141Z 02011KT 3/4SM R35L/P6000FT -SN BR BKN003 OVC008 00/M01 A3036 RMK AO2 P0002 T00001011
Conditions at: KDEN (DENVER (DIA) , CO, US) observed 1141 UTC 24 April 2018
Temperature: 0.0°C (32°F)
Dewpoint: -1.1°C (30°F) [RH = 92%]
Pressure (altimeter): 30.36 inches Hg (1028.2 mb)
Winds: from the NNE (20 degrees) at 13 MPH (11 knots; 5.7 m/s)
Visibility: 0.75 miles (1.21 km)
Ceiling: 300 feet AGL
Clouds: broken clouds at 300 feet AGL
overcast cloud deck at 800 feet AGL
Weather: -SN BR  (light snow, mist)

METAR text: KDEN 241123Z 03008KT 1 3/4SM -SN BR BKN005 OVC009 00/M01 A3036 RMK AO2 CIG 003V007 P0001 T00001006
Conditions at: KDEN (DENVER (DIA) , CO, US) observed 1123 UTC 24 April 2018
Temperature: 0.0°C (32°F)
Dewpoint: -0.6°C (31°F) [RH = 96%]
Pressure (altimeter): 30.36 inches Hg (1028.2 mb)
Winds: from the NNE (30 degrees) at 9 MPH (8 knots; 4.2 m/s)
Visibility: 1.75 miles (2.82 km)
Ceiling: 500 feet AGL
Clouds: broken clouds at 500 feet AGL
overcast cloud deck at 900 feet AGL
Weather: -SN BR  (light snow, mist)

Forecast for: KDEN (DENVER (DIA) , CO, US)
Text: KDEN 241121Z 2412/2518 02010KT 2SM -SN BR BKN005 OVC007
Forecast period: 1200 to 1230 UTC 24 April 2018
Forecast type: FROM: standard forecast or significant change
Winds: from the NNE (20 degrees) at 12 MPH (10 knots; 5.2 m/s)
Visibility: 2.00 miles (3.22 km)
Ceiling: 500 feet AGL
Clouds: broken clouds at 500 feet AGL
overcast cloud deck at 700 feet AGL
Weather: -SN BR  (light snow, mist)
Forecast for: KDEN (DENVER (DIA) , CO, US)
Text: KDEN 241121Z 2412/2518 02010KT 2SM -SN BR BKN005 OVC007
Forecast period: 1200 to 1230 UTC 24 April 2018
Forecast type: FROM: standard forecast or significant change
Winds: from the NNE (20 degrees) at 12 MPH (10 knots; 5.2 m/s)
Visibility: 2.00 miles (3.22 km)
Ceiling: 500 feet AGL
Clouds: broken clouds at 500 feet AGL
overcast cloud deck at 700 feet AGL
Weather: -SN BR  (light snow, mist)
Forecast for: KDEN (DENVER (DIA) , CO, US)
Text: KDEN 241121Z 2412/2518 02010KT 2SM -SN BR BKN005 OVC007
Forecast period: 1230 to 1600 UTC 24 April 2018
Forecast type: FROM: standard forecast or significant change
Winds: from the N (10 degrees) at 12 MPH (10 knots; 5.2 m/s)
Visibility: 6 or more miles (10+ km)
Ceiling: 1200 feet AGL
Clouds: broken clouds at 1200 feet AGL
overcast cloud deck at 2500 feet AGL
Weather: VCSH  (showers in vicinity)
Forecast for: KDEN (DENVER (DIA) , CO, US)
Text: KDEN 241121Z 2412/2518 02010KT 2SM -SN BR BKN005 OVC007
Forecast period: 1230 to 1600 UTC 24 April 2018
Forecast type: FROM: standard forecast or significant change
Winds: from the N (10 degrees) at 12 MPH (10 knots; 5.2 m/s)
Visibility: 6 or more miles (10+ km)
Ceiling: 1200 feet AGL
Clouds: broken clouds at 1200 feet AGL
overcast cloud deck at 2500 feet AGL
Weather: VCSH  (showers in vicinity)
Forecast for: KDEN (DENVER (DIA) , CO, US)
Text: KDEN 241121Z 2412/2518 02010KT 2SM -SN BR BKN005 OVC007
Forecast period: 1600 to 2200 UTC 24 April 2018
Forecast type: FROM: standard forecast or significant change
Winds: from the N (10 degrees) at 15 MPH (13 knots; 6.8 m/s)
Visibility: 6 or more miles (10+ km)
Ceiling: 2500 feet AGL
Clouds: broken clouds at 2500 feet AGL
overcast cloud deck at 5000 feet AGL
Weather: no significant weather forecast for this period
Forecast for: KDEN (DENVER (DIA) , CO, US)
Text: KDEN 241121Z 2412/2518 02010KT 2SM -SN BR BKN005 OVC007
Forecast period: 1600 to 2200 UTC 24 April 2018
Forecast type: FROM: standard forecast or significant change
Winds: from the N (10 degrees) at 15 MPH (13 knots; 6.8 m/s)
Visibility: 6 or more miles (10+ km)
Ceiling: 2500 feet AGL
Clouds: broken clouds at 2500 feet AGL
overcast cloud deck at 5000 feet AGL
Weather: no significant weather forecast for this period
Forecast for: KDEN (DENVER (DIA) , CO, US)
Text: KDEN 241121Z 2412/2518 02010KT 2SM -SN BR BKN005 OVC007
Forecast period: 2200 UTC 24 April 2018 to 0200 UTC 25 April 2018
Forecast type: FROM: standard forecast or significant change
Winds: from the NNE (20 degrees) at 14 MPH (12 knots; 6.2 m/s)
Visibility: 6 or more miles (10+ km)
Ceiling: 4000 feet AGL
Clouds: broken clouds at 4000 feet AGL
broken clouds at 10000 feet AGL
Weather: no significant weather forecast for this period
Forecast for: KDEN (DENVER (DIA) , CO, US)
Text: KDEN 241121Z 2412/2518 02010KT 2SM -SN BR BKN005 OVC007
Forecast period: 2200 UTC 24 April 2018 to 0200 UTC 25 April 2018
Forecast type: FROM: standard forecast or significant change
Winds: from the NNE (20 degrees) at 14 MPH (12 knots; 6.2 m/s)
Visibility: 6 or more miles (10+ km)
Ceiling: 4000 feet AGL
Clouds: broken clouds at 4000 feet AGL
broken clouds at 10000 feet AGL
Weather: no significant weather forecast for this period
Forecast for: KDEN (DENVER (DIA) , CO, US)
Text: KDEN 241121Z 2412/2518 02010KT 2SM -SN BR BKN005 OVC007
Forecast period: 0200 to 1200 UTC 25 April 2018
Forecast type: FROM: standard forecast or significant change
Winds: from the NE (50 degrees) at 8 MPH (7 knots; 3.6 m/s)
Visibility: 6 or more miles (10+ km)
Ceiling: 3000 feet AGL
Clouds: broken clouds at 3000 feet AGL
overcast cloud deck at 5000 feet AGL
Weather: no significant weather forecast for this period
Forecast for: KDEN (DENVER (DIA) , CO, US)
Text: KDEN 241121Z 2412/2518 02010KT 2SM -SN BR BKN005 OVC007
Forecast period: 0200 to 1200 UTC 25 April 2018
Forecast type: FROM: standard forecast or significant change
Winds: from the NE (50 degrees) at 8 MPH (7 knots; 3.6 m/s)
Visibility: 6 or more miles (10+ km)
Ceiling: 3000 feet AGL
Clouds: broken clouds at 3000 feet AGL
overcast cloud deck at 5000 feet AGL
Weather: no significant weather forecast for this period
Forecast for: KDEN (DENVER (DIA) , CO, US)
Text: KDEN 241121Z 2412/2518 02010KT 2SM -SN BR BKN005 OVC007
Forecast period: 1200 to 1600 UTC 25 April 2018
Forecast type: FROM: standard forecast or significant change
Winds: from the W (260 degrees) at 6 MPH (5 knots; 2.6 m/s)
Visibility: 6 or more miles (10+ km)
Clouds: few clouds at 3000 feet AGL
scattered clouds at 4000 feet AGL
Weather: no significant weather forecast for this period
Forecast for: KDEN (DENVER (DIA) , CO, US)
Text: KDEN 241121Z 2412/2518 02010KT 2SM -SN BR BKN005 OVC007
Forecast period: 1200 to 1600 UTC 25 April 2018
Forecast type: FROM: standard forecast or significant change
Winds: from the W (260 degrees) at 6 MPH (5 knots; 2.6 m/s)
Visibility: 6 or more miles (10+ km)
Clouds: few clouds at 3000 feet AGL
scattered clouds at 4000 feet AGL
Weather: no significant weather forecast for this period
Forecast for: KDEN (DENVER (DIA) , CO, US)
Text: KDEN 241121Z 2412/2518 02010KT 2SM -SN BR BKN005 OVC007
Forecast period: 1600 to 1800 UTC 25 April 2018
Forecast type: FROM: standard forecast or significant change
Winds: from the N (350 degrees) at 9 MPH (8 knots; 4.2 m/s)
Visibility: 6 or more miles (10+ km)
Clouds: clear skies
Weather: no significant weather forecast for this period
Forecast for: KDEN (DENVER (DIA) , CO, US)
Text: KDEN 241121Z 2412/2518 02010KT 2SM -SN BR BKN005 OVC007
Forecast period: 1600 to 1800 UTC 25 April 2018
Forecast type: FROM: standard forecast or significant change
Winds: from the N (350 degrees) at 9 MPH (8 knots; 4.2 m/s)
Visibility: 6 or more miles (10+ km)
Clouds: clear skies
Weather: no significant weather forecast for this period

 MAPA DO AEROPORTO

 INFORMAÇÕES DA PISTA
Pista 07 Tamanho da pista 12000 ft Largura da pista 150 ft
Elevação da pista 5347 ft Ranhura da pista 0 ft Proa da pista 91
Pista 25 Tamanho da pista 12000 ft Largura da pista 150 ft
Elevação da pista 5352 ft Ranhura da pista 0 ft Proa da pista 271
Pista 08 Tamanho da pista 12000 ft Largura da pista 150 ft
Elevação da pista 5351 ft Ranhura da pista 0 ft Proa da pista 91
Pista 26 Tamanho da pista 12000 ft Largura da pista 150 ft
Elevação da pista 5291 ft Ranhura da pista 0 ft Proa da pista 271
Pista 16L Tamanho da pista 12000 ft Largura da pista 150 ft
Elevação da pista 5347 ft Ranhura da pista 0 ft Proa da pista 181
Pista 34R Tamanho da pista 12000 ft Largura da pista 150 ft
Elevação da pista 5351 ft Ranhura da pista 0 ft Proa da pista 1
Pista 16R Tamanho da pista 16000 ft Largura da pista 200 ft
Elevação da pista 5319 ft Ranhura da pista 0 ft Proa da pista 181
Pista 34L Tamanho da pista 16000 ft Largura da pista 200 ft
Elevação da pista 5324 ft Ranhura da pista 0 ft Proa da pista 1
Pista 17L Tamanho da pista 12000 ft Largura da pista 150 ft
Elevação da pista 5325 ft Ranhura da pista 0 ft Proa da pista 181
Pista 35R Tamanho da pista 12000 ft Largura da pista 150 ft
Elevação da pista 5367 ft Ranhura da pista 0 ft Proa da pista 1
Pista 17R Tamanho da pista 12000 ft Largura da pista 150 ft
Elevação da pista 5374 ft Ranhura da pista 0 ft Proa da pista 181
Pista 35L Tamanho da pista 12000 ft Largura da pista 150 ft
Elevação da pista 5431 ft Ranhura da pista 0 ft Proa da pista 1

 FREQUÊNCIAS DO AEROPORTO
Tipo APP Nome APP Frequência 119.3 MHZ
Tipo ATIS Nome ATIS Frequência 125.6 MHZ
Tipo CLD Nome CLNC DEL Frequência 118.75 MHZ
Tipo DEP Nome DEP Frequência 126.1 MHZ
Tipo GND Nome GND Frequência 121.85 MHZ
Tipo RDO Nome RDO Frequência 123.65 MHZ
Tipo TWR Nome TWR Frequência 124.3 MHZ
Tipo UNIC Nome UNICOM Frequência 122.95 MHZ

 AUXÍLIOS DE NAVEGAÇÃO PRÓXIMOS AO AEROPORTO
Tipo VORTAC Nome Mile High Frequência 114700 KHZ





Powered by Virtual Airlines Manager [v2.6.2]